createdAt,value
2023-03-16T00:00:14.061Z,18.55
2023-03-16T00:05:14.706Z,24.95
2023-03-16T00:07:45.124Z,19.33
2023-03-16T00:10:14.776Z,21.55
2023-03-16T00:12:45.092Z,21.63
2023-03-16T00:15:13.979Z,22.02
2023-03-16T00:17:43.011Z,19.48
2023-03-16T00:20:13.832Z,26.67
2023-03-16T00:22:43.263Z,17.40
2023-03-16T00:25:15.454Z,21.65
2023-03-16T00:27:44.019Z,20.80
2023-03-16T00:30:14.363Z,17.70
2023-03-16T00:32:43.073Z,16.63
2023-03-16T00:35:11.916Z,23.83
2023-03-16T00:37:42.746Z,16.10
2023-03-16T00:40:14.123Z,14.83
2023-03-16T00:42:43.530Z,24.50
2023-03-16T00:45:12.682Z,18.88
2023-03-16T00:47:42.330Z,17.55
2023-03-16T00:50:11.892Z,18.17
2023-03-16T00:52:40.344Z,20.52
2023-03-16T00:55:09.460Z,23.10
2023-03-16T00:57:39.640Z,23.80
2023-03-16T01:00:13.106Z,19.77
2023-03-16T01:02:42.262Z,23.70
2023-03-16T01:05:11.231Z,21.63
2023-03-16T01:07:39.938Z,22.20
2023-03-16T01:10:10.570Z,18.58
2023-03-16T01:12:40.513Z,18.15
2023-03-16T01:15:11.047Z,19.65
2023-03-16T01:17:39.315Z,23.88
2023-03-16T01:20:12.108Z,15.10
2023-03-16T01:22:40.495Z,16.15
2023-03-16T01:25:12.222Z,16.98
2023-03-16T01:27:44.902Z,15.90
2023-03-16T01:30:14.264Z,20.27
2023-03-16T01:32:43.559Z,20.48
2023-03-16T01:37:43.200Z,18.30
2023-03-16T01:40:22.347Z,14.43
2023-03-16T01:43:02.890Z,19.48
2023-03-16T01:46:18.402Z,19.60
2023-03-16T01:48:56.411Z,20.50
2023-03-16T01:51:33.281Z,15.52
2023-03-16T01:54:06.175Z,20.15
2023-03-16T01:56:39.126Z,16.15
2023-03-16T01:59:13.270Z,16.65
2023-03-16T02:01:42.544Z,17.92
2023-03-16T02:04:31.924Z,17.95
2023-03-16T02:07:02.939Z,14.35
2023-03-16T02:09:34.849Z,25.80
2023-03-16T02:12:03.299Z,18.17
2023-03-16T02:14:36.011Z,19.92
2023-03-16T02:17:04.538Z,18.92
2023-03-16T02:19:42.319Z,18.75
2023-03-16T02:22:14.149Z,19.65
2023-03-16T02:24:43.520Z,19.58
2023-03-16T02:27:14.986Z,15.88
2023-03-16T02:30:07.764Z,16.73
2023-03-16T02:32:45.701Z,14.82
2023-03-16T02:35:14.810Z,20.00
2023-03-16T02:37:44.198Z,17.75
2023-03-16T02:40:22.708Z,16.05
2023-03-16T02:43:02.944Z,13.32
2023-03-16T02:45:41.005Z,16.10
2023-03-16T02:48:15.170Z,15.93
2023-03-16T02:50:48.206Z,15.60
2023-03-16T02:53:17.373Z,18.00
2023-03-16T02:55:46.610Z,14.15
2023-03-16T02:58:16.205Z,18.13
2023-03-16T03:00:46.550Z,17.48
2023-03-16T03:03:18.552Z,17.95
2023-03-16T03:05:46.892Z,17.50
2023-03-16T03:08:15.723Z,16.40
2023-03-16T03:10:44.907Z,16.38
2023-03-16T03:13:13.909Z,14.10
2023-03-16T03:15:42.505Z,14.93
2023-03-16T03:18:14.697Z,15.70
2023-03-16T03:20:43.366Z,17.15
2023-03-16T03:23:12.155Z,16.38
2023-03-16T03:25:43.067Z,18.42
2023-03-16T03:28:11.871Z,13.90
2023-03-16T03:30:41.826Z,13.77
2023-03-16T03:33:10.320Z,20.25
2023-03-16T03:35:42.145Z,17.52
2023-03-16T03:38:11.710Z,18.30
2023-03-16T03:40:41.587Z,20.60
2023-03-16T03:43:10.000Z,18.27
2023-03-16T03:45:43.013Z,14.80
2023-03-16T03:48:11.733Z,17.48
2023-03-16T03:50:41.482Z,19.63
2023-03-16T03:53:35.995Z,17.00
2023-03-16T03:56:28.165Z,21.60
2023-03-16T03:58:56.529Z,16.90
2023-03-16T04:01:49.193Z,19.52
2023-03-16T04:04:18.656Z,18.30
2023-03-16T04:06:48.801Z,23.27
2023-03-16T04:09:17.432Z,17.50
2023-03-16T04:11:47.344Z,22.55
2023-03-16T04:14:16.009Z,21.17
2023-03-16T04:16:45.595Z,21.45
2023-03-16T04:19:15.277Z,18.90
2023-03-16T04:21:44.472Z,22.92
2023-03-16T04:24:14.924Z,23.02
2023-03-16T04:26:45.209Z,21.40
2023-03-16T04:29:18.283Z,19.60
2023-03-16T04:31:47.593Z,17.42
2023-03-16T04:34:17.302Z,24.48
2023-03-16T04:36:45.635Z,18.25
2023-03-16T04:39:16.337Z,19.13
2023-03-16T04:41:44.743Z,16.25
2023-03-16T04:44:19.045Z,15.13
2023-03-16T04:46:47.722Z,20.25
2023-03-16T04:49:16.226Z,24.67
2023-03-16T04:51:46.856Z,16.50
2023-03-16T04:54:22.122Z,16.80
2023-03-16T04:56:50.610Z,17.33
2023-03-16T04:59:37.482Z,15.25
2023-03-16T05:02:25.169Z,19.58
2023-03-16T05:04:55.288Z,20.88
2023-03-16T05:07:24.734Z,18.88
2023-03-16T05:09:57.696Z,18.15
2023-03-16T05:12:26.418Z,18.92
2023-03-16T05:15:00.794Z,20.67
2023-03-16T05:17:51.999Z,18.00
2023-03-16T05:20:22.565Z,23.38
2023-03-16T05:22:55.340Z,21.38
2023-03-16T05:25:32.124Z,18.55
2023-03-16T05:28:06.028Z,19.30
2023-03-16T05:30:46.421Z,22.35
2023-03-16T05:33:20.109Z,18.98
2023-03-16T05:35:52.733Z,24.48
2023-03-16T05:38:24.210Z,21.67
2023-03-16T05:40:54.766Z,23.98
2023-03-16T05:43:53.272Z,21.77
2023-03-16T05:48:54.014Z,18.90
2023-03-16T05:51:26.910Z,19.88
2023-03-16T05:53:57.897Z,22.42
2023-03-16T05:56:48.833Z,27.35
2023-03-16T05:59:20.034Z,27.88
2023-03-16T06:01:54.727Z,19.25
2023-03-16T06:04:23.724Z,20.42
2023-03-16T06:06:52.562Z,20.85
2023-03-16T06:09:26.465Z,20.98
2023-03-16T06:11:57.773Z,20.17
2023-03-16T06:14:27.252Z,23.73
2023-03-16T06:16:57.219Z,21.20
2023-03-16T06:19:26.043Z,23.63
2023-03-16T06:22:01.209Z,18.95
2023-03-16T06:24:30.072Z,23.23
2023-03-16T06:27:00.192Z,18.45
2023-03-16T06:29:35.340Z,26.38
2023-03-16T06:32:05.532Z,19.38
2023-03-16T06:34:35.437Z,22.58
2023-03-16T06:37:06.527Z,22.65
2023-03-16T06:39:35.297Z,19.30
2023-03-16T06:42:05.892Z,19.63
2023-03-16T06:47:10.541Z,16.88
2023-03-16T06:49:39.588Z,19.73
2023-03-16T06:52:16.701Z,18.95
2023-03-16T06:54:45.159Z,20.25
2023-03-16T06:57:15.859Z,17.27
2023-03-16T06:59:45.595Z,23.27
2023-03-16T07:02:15.455Z,17.45
2023-03-16T07:04:45.077Z,17.15
2023-03-16T07:07:14.039Z,21.98
2023-03-16T07:09:42.675Z,16.25
2023-03-16T07:12:11.968Z,19.88
2023-03-16T07:14:42.176Z,18.00
2023-03-16T07:17:13.683Z,19.33
2023-03-16T07:19:42.211Z,22.48
2023-03-16T07:22:11.226Z,16.77
2023-03-16T07:24:41.892Z,17.98
2023-03-16T07:27:12.493Z,16.35
2023-03-16T07:29:43.241Z,18.50
2023-03-16T07:32:11.967Z,16.50
2023-03-16T07:34:42.062Z,18.35
2023-03-16T07:37:11.520Z,20.15
2023-03-16T07:39:40.881Z,16.55
2023-03-16T07:42:18.941Z,19.15
2023-03-16T07:45:08.679Z,14.70
2023-03-16T07:47:37.471Z,17.83
2023-03-16T07:50:16.309Z,17.40
2023-03-16T07:52:47.703Z,16.73
2023-03-16T07:55:16.634Z,13.00
2023-03-16T07:57:48.490Z,18.30
2023-03-16T08:00:24.313Z,12.52
2023-03-16T08:02:54.158Z,13.98
2023-03-16T08:05:22.985Z,14.20
2023-03-16T08:07:57.542Z,14.63
2023-03-16T08:10:29.509Z,13.80
2023-03-16T08:13:06.214Z,12.43
2023-03-16T08:15:37.372Z,11.65
2023-03-16T08:18:12.798Z,11.15
2023-03-16T08:20:42.261Z,11.70
2023-03-16T08:23:11.925Z,11.23
2023-03-16T08:25:42.995Z,18.38
2023-03-16T08:28:16.294Z,14.00
2023-03-16T08:30:51.140Z,11.88
2023-03-16T08:33:39.853Z,13.38
2023-03-16T08:36:13.576Z,10.80
2023-03-16T08:38:53.543Z,9.32
2023-03-16T08:41:30.966Z,12.05
2023-03-16T08:44:03.409Z,11.60
2023-03-16T08:46:34.250Z,13.40
2023-03-16T08:49:03.703Z,12.90
2023-03-16T08:51:33.835Z,10.88
2023-03-16T08:54:02.426Z,16.02
2023-03-16T08:56:30.900Z,17.95
2023-03-16T08:58:59.900Z,12.50
2023-03-16T09:01:29.812Z,11.50
2023-03-16T09:04:00.783Z,10.55
2023-03-16T09:06:29.371Z,14.83
2023-03-16T09:08:57.947Z,11.90
2023-03-16T09:11:28.967Z,38.83
2023-03-16T09:13:58.467Z,72.73
2023-03-16T09:16:27.347Z,17.25
2023-03-16T09:18:56.499Z,26.90
2023-03-16T09:21:26.808Z,24.20
2023-03-16T09:23:56.531Z,25.13
2023-03-16T09:26:25.543Z,30.63
2023-03-16T09:28:54.621Z,25.98
2023-03-16T09:31:23.400Z,12.30
2023-03-16T09:33:52.334Z,13.90
2023-03-16T09:36:20.872Z,10.82
2023-03-16T09:38:51.132Z,12.63
2023-03-16T09:41:33.610Z,14.48
2023-03-16T09:44:11.817Z,17.35
2023-03-16T09:46:43.926Z,26.17
2023-03-16T09:49:16.346Z,48.42
2023-03-16T09:51:49.976Z,9.57
2023-03-16T09:54:29.483Z,8.23
2023-03-16T09:56:59.942Z,9.38
2023-03-16T09:59:28.804Z,10.32
2023-03-16T10:02:12.804Z,9.40
2023-03-16T10:04:50.810Z,8.00
2023-03-16T10:07:32.527Z,9.25
2023-03-16T10:10:17.184Z,6.40
2023-03-16T10:12:50.734Z,7.80
2023-03-16T10:15:22.442Z,6.13
2023-03-16T10:17:57.549Z,7.15
2023-03-16T10:20:29.015Z,8.45
2023-03-16T10:25:36.931Z,9.18
2023-03-16T10:28:05.861Z,22.83
2023-03-16T10:30:37.502Z,38.60
2023-03-16T10:33:18.584Z,47.17
2023-03-16T10:35:50.002Z,204.40
2023-03-16T10:38:38.848Z,163.63
2023-03-16T10:41:22.867Z,206.00
2023-03-16T10:43:53.630Z,6.05
2023-03-16T10:46:22.741Z,6.82
2023-03-16T10:48:59.892Z,5.10
2023-03-16T10:51:32.277Z,7.30
2023-03-16T10:54:11.540Z,6.05
2023-03-16T10:56:41.713Z,6.05
2023-03-16T10:59:27.905Z,6.35
2023-03-16T11:01:57.252Z,5.03
2023-03-16T11:04:25.947Z,4.20
2023-03-16T11:06:57.164Z,6.50
2023-03-16T11:09:33.084Z,5.53
2023-03-16T11:12:14.352Z,3.45
2023-03-16T11:14:46.913Z,4.53
2023-03-16T11:17:19.266Z,4.18
2023-03-16T11:19:54.671Z,7.20
2023-03-16T11:22:25.376Z,4.97
2023-03-16T11:24:58.351Z,4.18
2023-03-16T11:27:35.135Z,7.38
2023-03-16T11:30:11.426Z,5.85
2023-03-16T11:32:42.101Z,5.03
2023-03-16T11:35:16.653Z,5.40
2023-03-16T11:37:55.896Z,5.90
2023-03-16T11:40:38.789Z,5.72
2023-03-16T11:43:20.375Z,6.78
2023-03-16T11:45:56.726Z,5.60
2023-03-16T11:48:36.782Z,9.27
2023-03-16T11:51:16.490Z,6.00
2023-03-16T11:53:59.962Z,7.43
2023-03-16T11:56:35.560Z,7.88
2023-03-16T11:59:36.908Z,5.97
2023-03-16T12:02:40.559Z,6.97
2023-03-16T12:05:24.864Z,9.52
2023-03-16T12:08:09.365Z,6.63
2023-03-16T12:10:43.929Z,5.95
2023-03-16T12:13:30.658Z,5.53
2023-03-16T12:16:05.913Z,3.00
2023-03-16T12:18:42.661Z,5.80
2023-03-16T12:21:16.255Z,5.28
2023-03-16T12:23:52.584Z,6.50
2023-03-16T12:26:24.219Z,5.63
2023-03-16T12:28:55.640Z,4.50
2023-03-16T12:31:37.697Z,4.97
2023-03-16T12:36:59.043Z,4.30
2023-03-16T12:39:46.048Z,8.23
2023-03-16T12:42:33.746Z,6.20
2023-03-16T12:45:07.243Z,10.60
2023-03-16T12:47:45.124Z,9.55
2023-03-16T12:50:16.658Z,6.32
2023-03-16T12:52:47.852Z,7.47
2023-03-16T12:55:18.992Z,9.80
2023-03-16T12:57:51.781Z,5.50
2023-03-16T13:00:22.785Z,9.13
2023-03-16T13:02:57.394Z,9.40
2023-03-16T13:05:32.501Z,7.05
2023-03-16T13:08:11.159Z,6.05
2023-03-16T13:10:40.089Z,6.90
2023-03-16T13:13:17.330Z,6.40
2023-03-16T13:15:47.866Z,4.88
2023-03-16T13:18:24.998Z,5.40
2023-03-16T13:20:59.138Z,7.85
2023-03-16T13:23:30.207Z,7.20
2023-03-16T13:26:14.767Z,7.72
2023-03-16T13:28:47.289Z,8.80
2023-03-16T13:31:27.292Z,7.43
2023-03-16T13:34:00.448Z,6.78
2023-03-16T13:36:30.212Z,10.30
2023-03-16T13:39:05.847Z,7.30
2023-03-16T13:41:34.527Z,17.33
2023-03-16T13:44:03.033Z,11.60
2023-03-16T13:46:32.090Z,13.98
2023-03-16T13:49:02.481Z,10.73
2023-03-16T13:51:36.007Z,6.03
2023-03-16T13:54:18.537Z,13.52
2023-03-16T13:56:47.562Z,10.73
2023-03-16T13:59:17.891Z,11.88
2023-03-16T14:01:48.719Z,9.00
2023-03-16T14:04:24.080Z,11.73
2023-03-16T14:06:55.533Z,8.48
2023-03-16T14:09:28.912Z,12.05
2023-03-16T14:11:58.185Z,9.45
2023-03-16T14:14:30.483Z,18.67
2023-03-16T14:17:05.642Z,14.30
2023-03-16T14:19:43.845Z,18.95
2023-03-16T14:22:15.376Z,15.50
2023-03-16T14:24:45.488Z,16.95
2023-03-16T14:27:20.621Z,19.23
2023-03-16T14:29:55.954Z,20.65
2023-03-16T14:32:29.230Z,21.58
2023-03-16T14:35:18.407Z,18.30
2023-03-16T14:37:49.498Z,28.92
2023-03-16T14:40:27.438Z,23.30
2023-03-16T14:43:00.245Z,27.92
2023-03-16T14:45:33.698Z,18.80
2023-03-16T14:48:06.593Z,15.90
2023-03-16T14:50:37.314Z,22.42
2023-03-16T14:53:06.943Z,22.55
2023-03-16T14:55:36.555Z,24.63
2023-03-16T14:58:05.698Z,27.02
2023-03-16T15:00:42.811Z,42.78
2023-03-16T15:03:18.393Z,33.28
2023-03-16T15:05:51.136Z,45.63
2023-03-16T15:08:26.584Z,38.90
2023-03-16T15:10:59.094Z,25.85
2023-03-16T15:13:53.297Z,52.08
2023-03-16T15:16:23.349Z,55.50
2023-03-16T15:18:53.330Z,39.67
2023-03-16T15:21:26.812Z,55.30
2023-03-16T15:23:58.889Z,36.65
2023-03-16T15:26:29.917Z,49.72
2023-03-16T15:28:59.761Z,43.03
2023-03-16T15:31:28.341Z,66.85
2023-03-16T15:33:56.976Z,42.17
2023-03-16T15:36:26.913Z,60.05
2023-03-16T15:41:30.168Z,62.47
2023-03-16T15:44:03.583Z,55.13
2023-03-16T15:46:32.482Z,70.50
2023-03-16T15:49:02.149Z,72.68
2023-03-16T15:51:33.962Z,59.28
2023-03-16T15:54:05.073Z,69.95
2023-03-16T15:56:50.996Z,73.93
2023-03-16T15:59:22.389Z,66.72
2023-03-16T16:01:51.909Z,49.95
2023-03-16T16:04:25.231Z,55.92
2023-03-16T16:06:55.670Z,73.50
2023-03-16T16:09:24.781Z,65.90
2023-03-16T16:11:53.808Z,47.10
2023-03-16T16:14:28.326Z,57.95
2023-03-16T16:16:57.073Z,43.05
2023-03-16T16:19:25.888Z,49.15
2023-03-16T16:21:57.420Z,37.10
2023-03-16T16:24:26.473Z,64.10
2023-03-16T16:26:56.091Z,61.60
2023-03-16T16:29:27.344Z,66.88
2023-03-16T16:31:56.847Z,57.00
2023-03-16T16:34:26.080Z,82.45
2023-03-16T16:36:55.267Z,67.43
2023-03-16T16:39:25.938Z,91.60
2023-03-16T16:41:56.584Z,92.47
2023-03-16T16:44:28.737Z,83.25
2023-03-16T16:46:59.862Z,65.57
2023-03-16T16:49:30.882Z,83.47
2023-03-16T16:52:01.255Z,73.20
2023-03-16T16:54:32.842Z,96.68
2023-03-16T16:59:32.592Z,94.03
2023-03-16T17:02:03.357Z,77.65
2023-03-16T17:04:32.058Z,104.90
2023-03-16T17:07:02.888Z,67.68
2023-03-16T17:09:33.190Z,83.90
2023-03-16T17:12:03.320Z,37.78
2023-03-16T17:14:32.322Z,80.07
2023-03-16T17:17:03.586Z,55.38
2023-03-16T17:19:32.953Z,76.72
2023-03-16T17:22:01.985Z,74.07
2023-03-16T17:24:32.292Z,92.50
2023-03-16T17:27:03.045Z,79.05
2023-03-16T17:29:33.451Z,109.67
2023-03-16T17:32:03.009Z,109.82
2023-03-16T17:34:34.482Z,127.80
2023-03-16T17:37:03.401Z,94.60
2023-03-16T17:39:35.011Z,104.57
2023-03-16T17:44:38.643Z,77.10
2023-03-16T17:49:41.878Z,59.65
2023-03-16T17:52:15.384Z,54.67
2023-03-16T17:54:47.133Z,61.10
2023-03-16T17:57:19.006Z,197.00
2023-03-16T17:59:48.011Z,57.35
2023-03-16T18:02:40.584Z,134.50
2023-03-16T18:05:19.138Z,57.95
2023-03-16T18:07:49.624Z,76.30
2023-03-16T18:10:21.925Z,100.63
2023-03-16T18:12:56.917Z,98.45
2023-03-16T18:15:29.559Z,89.35
2023-03-16T18:17:58.627Z,87.03
2023-03-16T18:20:31.142Z,71.65
2023-03-16T18:23:01.982Z,99.13
2023-03-16T18:25:36.292Z,83.40
2023-03-16T18:28:04.755Z,95.55
2023-03-16T18:30:34.062Z,87.55
2023-03-16T18:33:04.218Z,61.58
2023-03-16T18:35:33.135Z,85.85
2023-03-16T18:38:02.148Z,43.55
2023-03-16T18:40:31.441Z,32.75
2023-03-16T18:43:01.611Z,32.05
2023-03-16T18:45:31.103Z,40.72
2023-03-16T18:47:59.706Z,12.38
2023-03-16T18:50:30.392Z,19.27
2023-03-16T18:52:59.429Z,40.80
2023-03-16T18:55:28.996Z,29.40
2023-03-16T18:57:58.866Z,27.40
2023-03-16T19:00:29.951Z,35.30
2023-03-16T19:03:01.523Z,43.67
2023-03-16T19:05:35.955Z,41.90
2023-03-16T19:08:06.474Z,38.90
2023-03-16T19:10:37.527Z,54.60
2023-03-16T19:13:14.706Z,31.77
2023-03-16T19:15:46.917Z,23.52
2023-03-16T19:18:16.160Z,18.63
2023-03-16T19:20:49.035Z,18.52
2023-03-16T19:23:22.148Z,20.70
2023-03-16T19:25:51.930Z,17.45
2023-03-16T19:28:27.187Z,16.13
2023-03-16T19:30:57.175Z,20.08
2023-03-16T19:33:27.125Z,19.30
2023-03-16T19:35:57.066Z,23.30
2023-03-16T19:38:26.986Z,17.75
2023-03-16T19:40:58.619Z,17.92
2023-03-16T19:43:28.646Z,23.60
2023-03-16T19:45:59.951Z,19.80
2023-03-16T19:48:33.360Z,11.35
2023-03-16T19:51:02.318Z,17.92
2023-03-16T19:53:30.984Z,24.88
2023-03-16T19:56:00.041Z,19.55
2023-03-16T19:58:33.504Z,22.83
2023-03-16T20:01:03.714Z,21.65
2023-03-16T20:03:36.597Z,19.73
2023-03-16T20:06:05.568Z,18.98
2023-03-16T20:08:34.043Z,18.88
2023-03-16T20:11:08.794Z,19.27
2023-03-16T20:13:37.599Z,23.52
2023-03-16T20:16:08.572Z,16.13
2023-03-16T20:18:37.604Z,18.52
2023-03-16T20:21:07.360Z,25.23
2023-03-16T20:23:36.066Z,26.08
2023-03-16T20:26:04.835Z,26.08
2023-03-16T20:28:36.191Z,23.65
2023-03-16T20:31:16.327Z,27.90
2023-03-16T20:33:45.174Z,28.52
2023-03-16T20:36:14.512Z,28.10
2023-03-16T20:38:44.060Z,32.25
2023-03-16T20:41:20.009Z,33.17
2023-03-16T20:43:49.797Z,30.38
2023-03-16T20:46:27.533Z,32.75
2023-03-16T20:48:56.842Z,31.80
2023-03-16T20:51:25.279Z,32.85
2023-03-16T20:53:53.807Z,30.80
2023-03-16T20:56:25.488Z,28.75
2023-03-16T20:58:56.361Z,32.72
2023-03-16T21:01:27.835Z,31.70
2023-03-16T21:03:57.421Z,36.35
2023-03-16T21:06:28.592Z,38.42
2023-03-16T21:08:59.219Z,38.80
2023-03-16T21:11:33.363Z,37.72
2023-03-16T21:14:02.433Z,39.33
2023-03-16T21:16:32.472Z,36.47
2023-03-16T21:19:01.229Z,53.42
2023-03-16T21:21:29.760Z,45.65
2023-03-16T21:23:58.214Z,40.42
2023-03-16T21:26:29.365Z,45.15
2023-03-16T21:29:00.634Z,38.00
2023-03-16T21:31:29.680Z,33.15
2023-03-16T21:33:59.761Z,30.65
2023-03-16T21:36:29.766Z,37.33
2023-03-16T21:38:59.327Z,32.70
2023-03-16T21:41:27.845Z,34.88
2023-03-16T21:43:56.375Z,36.88
2023-03-16T21:46:25.713Z,36.40
2023-03-16T21:48:56.264Z,39.60
2023-03-16T21:51:30.393Z,49.63
2023-03-16T21:53:59.313Z,42.03
2023-03-16T21:56:28.049Z,42.35
2023-03-16T21:58:56.406Z,49.03
2023-03-16T22:01:27.900Z,46.67
2023-03-16T22:03:58.777Z,40.50
2023-03-16T22:06:29.205Z,33.67
2023-03-16T22:08:59.752Z,34.15
2023-03-16T22:11:29.766Z,52.67
2023-03-16T22:13:59.295Z,48.65
2023-03-16T22:16:33.551Z,53.28
2023-03-16T22:19:02.257Z,43.47
2023-03-16T22:21:35.265Z,48.17
2023-03-16T22:24:05.550Z,59.53
2023-03-16T22:26:34.807Z,67.07
2023-03-16T22:29:07.821Z,56.47
2023-03-16T22:31:39.948Z,63.58
2023-03-16T22:34:10.603Z,53.90
2023-03-16T22:36:40.500Z,50.70
2023-03-16T22:39:13.027Z,46.03
2023-03-16T22:41:41.529Z,51.95
2023-03-16T22:44:20.768Z,48.78
2023-03-16T22:46:51.213Z,53.72
2023-03-16T22:49:22.369Z,48.85
2023-03-16T22:51:54.584Z,49.95
2023-03-16T22:54:27.766Z,49.80
2023-03-16T22:56:57.053Z,41.78
2023-03-16T22:59:28.272Z,50.45
2023-03-16T23:01:57.511Z,45.97
2023-03-16T23:04:30.390Z,46.08
2023-03-16T23:07:00.508Z,47.95
2023-03-16T23:09:29.047Z,47.42
2023-03-16T23:11:59.608Z,50.53
2023-03-16T23:14:30.980Z,48.45
2023-03-16T23:16:59.430Z,46.42
2023-03-16T23:19:30.903Z,47.70
2023-03-16T23:22:02.404Z,47.85
2023-03-16T23:24:30.975Z,51.42
2023-03-16T23:26:59.560Z,44.70
2023-03-16T23:29:29.148Z,51.25
2023-03-16T23:31:58.013Z,47.28
2023-03-16T23:34:27.083Z,48.58
2023-03-16T23:36:55.860Z,50.03
2023-03-16T23:39:26.195Z,48.97
2023-03-16T23:41:55.265Z,48.78
2023-03-16T23:44:26.890Z,44.45
2023-03-16T23:46:56.666Z,42.90
2023-03-16T23:49:27.336Z,47.40
2023-03-16T23:51:58.696Z,38.73
2023-03-16T23:54:31.165Z,41.50
2023-03-16T23:56:59.583Z,50.17
2023-03-16T23:59:28.945Z,48.08
